createdAt,value
2023-03-07T00:00:08.979Z,3.83
2023-03-07T00:02:36.021Z,3.92
2023-03-07T00:05:03.159Z,3.60
2023-03-07T00:07:31.806Z,4.07
2023-03-07T00:09:58.843Z,3.60
2023-03-07T00:12:26.095Z,3.72
2023-03-07T00:14:53.040Z,1.83
2023-03-07T00:17:20.040Z,3.55
2023-03-07T00:19:47.353Z,3.47
2023-03-07T00:22:14.745Z,2.65
2023-03-07T00:24:41.843Z,4.82
2023-03-07T00:27:08.979Z,2.67
2023-03-07T00:29:35.999Z,2.30
2023-03-07T00:32:02.996Z,3.72
2023-03-07T00:34:29.926Z,4.20
2023-03-07T00:36:56.909Z,3.85
2023-03-07T00:39:23.817Z,5.88
2023-03-07T00:41:50.729Z,2.97
2023-03-07T00:47:14.040Z,3.90
2023-03-07T00:49:41.346Z,2.75
2023-03-07T00:52:08.288Z,2.78
2023-03-07T00:54:35.219Z,2.25
2023-03-07T00:57:02.443Z,5.05
2023-03-07T00:59:29.716Z,3.22
2023-03-07T01:01:56.628Z,5.47
2023-03-07T01:04:23.629Z,1.55
2023-03-07T01:06:51.489Z,5.03
2023-03-07T01:09:18.387Z,3.70
2023-03-07T01:11:45.471Z,2.33
2023-03-07T01:14:13.030Z,6.65
2023-03-07T01:16:40.172Z,6.03
2023-03-07T01:19:10.115Z,6.65
2023-03-07T01:21:39.819Z,3.75
2023-03-07T01:24:08.441Z,5.53
2023-03-07T01:26:36.008Z,4.65
2023-03-07T01:29:06.672Z,3.80
2023-03-07T01:31:36.230Z,4.15
2023-03-07T01:34:04.747Z,2.60
2023-03-07T01:36:35.772Z,3.40
2023-03-07T01:39:14.459Z,3.33
2023-03-07T01:42:04.548Z,4.30
2023-03-07T01:44:31.712Z,2.70
2023-03-07T01:47:00.703Z,2.83
2023-03-07T01:49:42.928Z,3.40
2023-03-07T01:52:09.987Z,2.55
2023-03-07T01:54:43.030Z,3.08
2023-03-07T01:57:10.041Z,6.07
2023-03-07T01:59:44.757Z,2.80
2023-03-07T02:02:17.340Z,4.97
2023-03-07T02:05:09.761Z,1.67
2023-03-07T02:07:45.384Z,3.75
2023-03-07T02:10:14.931Z,2.42
2023-03-07T02:12:42.415Z,2.78
2023-03-07T02:15:10.843Z,3.97
2023-03-07T02:17:37.970Z,3.58
2023-03-07T02:20:29.920Z,5.53
2023-03-07T02:22:57.291Z,2.80
2023-03-07T02:26:08.222Z,4.88
2023-03-07T02:28:35.974Z,2.97
2023-03-07T02:31:06.971Z,3.33
2023-03-07T02:33:36.503Z,2.88
2023-03-07T02:36:16.015Z,2.83
2023-03-07T02:39:01.086Z,2.08
2023-03-07T02:41:34.323Z,3.00
2023-03-07T02:44:06.489Z,2.53
2023-03-07T02:46:34.102Z,2.92
2023-03-07T02:49:01.150Z,14.50
2023-03-07T02:51:28.037Z,1.63
2023-03-07T02:53:55.085Z,2.65
2023-03-07T02:56:22.757Z,1.70
2023-03-07T02:58:50.550Z,3.40
2023-03-07T03:01:17.865Z,5.55
2023-03-07T03:03:44.819Z,1.98
2023-03-07T03:06:14.518Z,3.57
2023-03-07T03:08:41.456Z,3.75
2023-03-07T03:11:08.562Z,1.92
2023-03-07T03:13:38.212Z,6.13
2023-03-07T03:16:06.881Z,3.20
2023-03-07T03:18:34.022Z,3.03
2023-03-07T03:21:07.141Z,4.82
2023-03-07T03:23:34.193Z,2.75
2023-03-07T03:26:05.314Z,3.55
2023-03-07T03:28:33.204Z,3.55
2023-03-07T03:31:02.528Z,3.45
2023-03-07T03:33:30.932Z,4.13
2023-03-07T03:35:59.946Z,2.95
2023-03-07T03:38:27.536Z,4.20
2023-03-07T03:40:56.501Z,2.20
2023-03-07T03:43:24.064Z,3.75
2023-03-07T03:45:56.164Z,2.42
2023-03-07T03:48:25.034Z,4.20
2023-03-07T03:51:05.067Z,3.78
2023-03-07T03:56:14.258Z,3.58
2023-03-07T03:58:42.531Z,4.03
2023-03-07T04:01:12.579Z,4.53
2023-03-07T04:06:12.484Z,2.67
2023-03-07T04:08:40.110Z,1.17
2023-03-07T04:11:07.355Z,3.25
2023-03-07T04:13:35.974Z,2.38
2023-03-07T04:16:03.806Z,5.30
2023-03-07T04:18:31.514Z,3.63
2023-03-07T04:20:58.629Z,4.20
2023-03-07T04:23:25.955Z,4.88
2023-03-07T04:25:58.014Z,4.75
2023-03-07T04:28:42.824Z,4.38
2023-03-07T04:31:17.981Z,4.68
2023-03-07T04:33:46.080Z,4.75
2023-03-07T04:36:14.208Z,7.63
2023-03-07T04:38:42.401Z,4.10
2023-03-07T04:41:14.179Z,3.38
2023-03-07T04:43:41.659Z,5.30
2023-03-07T04:46:09.621Z,3.22
2023-03-07T04:48:36.751Z,5.72
2023-03-07T04:51:04.357Z,6.03
2023-03-07T04:53:31.763Z,5.82
2023-03-07T04:56:02.986Z,5.85
2023-03-07T04:58:33.934Z,3.88
2023-03-07T05:01:03.425Z,1.63
2023-03-07T05:03:31.354Z,5.05
2023-03-07T05:06:05.428Z,2.65
2023-03-07T05:08:33.497Z,5.63
2023-03-07T05:11:01.410Z,7.03
2023-03-07T05:13:29.173Z,5.95
2023-03-07T05:15:58.635Z,5.68
2023-03-07T05:18:27.229Z,3.30
2023-03-07T05:20:56.364Z,9.07
2023-03-07T05:23:23.937Z,4.95
2023-03-07T05:25:53.884Z,6.35
2023-03-07T05:28:22.148Z,5.10
2023-03-07T05:30:49.695Z,3.00
2023-03-07T05:33:16.918Z,6.10
2023-03-07T05:35:44.146Z,6.40
2023-03-07T05:38:13.544Z,3.30
2023-03-07T05:40:41.065Z,7.35
2023-03-07T05:43:09.821Z,8.00
2023-03-07T05:45:37.007Z,6.57
2023-03-07T05:48:04.136Z,5.60
2023-03-07T05:50:31.853Z,5.82
2023-03-07T05:52:59.688Z,6.68
2023-03-07T05:55:30.206Z,5.97
2023-03-07T05:57:57.676Z,8.15
2023-03-07T06:00:25.345Z,7.65
2023-03-07T06:02:56.915Z,7.75
2023-03-07T06:05:27.095Z,6.40
2023-03-07T06:10:40.266Z,8.23
2023-03-07T06:13:18.575Z,6.80
2023-03-07T06:15:45.585Z,3.72
2023-03-07T06:18:14.831Z,7.75
2023-03-07T06:20:41.936Z,9.02
2023-03-07T06:23:09.993Z,3.72
2023-03-07T06:25:38.346Z,8.15
2023-03-07T06:28:05.499Z,7.70
2023-03-07T06:30:33.270Z,6.60
2023-03-07T06:33:00.135Z,6.55
2023-03-07T06:35:27.062Z,10.13
2023-03-07T06:37:54.895Z,4.70
2023-03-07T06:40:22.021Z,9.63
2023-03-07T06:42:49.144Z,6.35
2023-03-07T06:45:17.303Z,5.35
2023-03-07T06:47:44.542Z,9.82
2023-03-07T06:50:11.990Z,8.40
2023-03-07T06:52:39.923Z,7.95
2023-03-07T06:55:07.647Z,8.73
2023-03-07T06:57:35.487Z,10.80
2023-03-07T07:00:05.487Z,10.02
2023-03-07T07:02:33.512Z,7.05
2023-03-07T07:05:01.400Z,7.38
2023-03-07T07:07:31.384Z,9.45
2023-03-07T07:09:59.783Z,6.95
2023-03-07T07:12:27.005Z,6.43
2023-03-07T07:14:55.194Z,9.52
2023-03-07T07:17:22.342Z,10.77
2023-03-07T07:19:49.739Z,10.23
2023-03-07T07:22:18.162Z,10.68
2023-03-07T07:24:45.385Z,8.18
2023-03-07T07:27:12.725Z,6.75
2023-03-07T07:29:40.351Z,9.18
2023-03-07T07:32:09.467Z,11.43
2023-03-07T07:34:36.657Z,10.18
2023-03-07T07:37:04.442Z,5.45
2023-03-07T07:39:31.698Z,7.13
2023-03-07T07:41:58.764Z,7.82
2023-03-07T07:44:31.498Z,8.73
2023-03-07T07:47:02.289Z,5.10
2023-03-07T07:49:29.475Z,5.22
2023-03-07T07:51:56.625Z,11.52
2023-03-07T07:54:24.118Z,6.50
2023-03-07T07:56:51.940Z,6.10
2023-03-07T07:59:20.502Z,12.05
2023-03-07T08:01:47.542Z,6.00
2023-03-07T08:04:14.444Z,6.35
2023-03-07T08:06:41.915Z,11.57
2023-03-07T08:09:09.234Z,7.57
2023-03-07T08:11:36.261Z,5.15
2023-03-07T08:14:03.696Z,7.90
2023-03-07T08:16:30.703Z,8.60
2023-03-07T08:18:58.038Z,6.70
2023-03-07T08:21:26.483Z,7.03
2023-03-07T08:23:55.064Z,14.30
2023-03-07T08:26:23.142Z,9.65
2023-03-07T08:28:50.144Z,9.85
2023-03-07T08:31:25.584Z,9.73
2023-03-07T08:33:53.137Z,8.85
2023-03-07T08:36:20.583Z,8.10
2023-03-07T08:38:52.284Z,9.38
2023-03-07T08:41:21.019Z,6.53
2023-03-07T08:43:48.707Z,6.40
2023-03-07T08:46:15.870Z,7.90
2023-03-07T08:48:42.905Z,9.90
2023-03-07T08:51:13.140Z,10.77
2023-03-07T08:56:11.191Z,9.10
2023-03-07T08:58:39.204Z,10.30
2023-03-07T09:01:08.185Z,7.80
2023-03-07T09:03:35.309Z,7.47
2023-03-07T09:06:03.400Z,7.22
2023-03-07T09:08:30.538Z,12.30
2023-03-07T09:11:05.674Z,8.98
2023-03-07T09:13:36.098Z,9.90
2023-03-07T09:16:06.844Z,8.95
2023-03-07T09:18:35.029Z,13.18
2023-03-07T09:21:05.847Z,10.00
2023-03-07T09:23:33.144Z,4.55
2023-03-07T09:26:01.344Z,11.57
2023-03-07T09:28:28.423Z,5.97
2023-03-07T09:30:55.384Z,6.22
2023-03-07T09:33:22.333Z,11.93
2023-03-07T09:35:49.964Z,6.25
2023-03-07T09:38:17.087Z,6.93
2023-03-07T09:40:47.409Z,7.45
2023-03-07T09:43:22.396Z,11.82
2023-03-07T09:46:25.066Z,6.80
2023-03-07T09:51:42.248Z,13.23
2023-03-07T09:54:16.979Z,10.90
2023-03-07T09:56:48.658Z,7.38
2023-03-07T09:59:22.740Z,15.25
2023-03-07T10:02:04.187Z,10.63
2023-03-07T10:04:42.868Z,9.73
2023-03-07T10:07:13.057Z,8.40
2023-03-07T10:09:40.501Z,8.35
2023-03-07T10:12:11.521Z,11.18
2023-03-07T10:14:59.911Z,6.75
2023-03-07T10:17:48.519Z,10.23
2023-03-07T10:20:33.834Z,6.70
2023-03-07T10:23:38.064Z,8.13
2023-03-07T10:26:24.686Z,10.30
2023-03-07T10:28:52.504Z,8.18
2023-03-07T10:31:32.340Z,7.97
2023-03-07T10:33:59.655Z,5.82
2023-03-07T10:36:44.503Z,9.63
2023-03-07T10:39:11.522Z,5.20
2023-03-07T10:41:38.402Z,5.30
2023-03-07T10:44:05.351Z,7.32
2023-03-07T10:46:33.203Z,3.88
2023-03-07T10:49:16.857Z,6.68
2023-03-07T10:52:06.772Z,6.43
2023-03-07T10:54:36.760Z,7.78
2023-03-07T10:57:13.267Z,8.88
2023-03-07T10:59:48.448Z,7.07
2023-03-07T11:02:37.092Z,7.65
2023-03-07T11:05:25.585Z,8.00
2023-03-07T11:07:52.632Z,7.93
2023-03-07T11:10:39.873Z,6.25
2023-03-07T11:13:19.297Z,5.78
2023-03-07T11:15:47.120Z,8.10
2023-03-07T11:18:36.659Z,5.70
2023-03-07T11:21:04.028Z,8.80
2023-03-07T11:23:32.134Z,12.05
2023-03-07T11:26:21.907Z,5.07
2023-03-07T11:29:10.912Z,5.60
2023-03-07T11:31:52.485Z,7.03
2023-03-07T11:34:32.155Z,5.45
2023-03-07T11:37:31.144Z,5.40
2023-03-07T11:40:34.395Z,5.68
2023-03-07T11:43:13.692Z,8.77
2023-03-07T11:45:52.852Z,11.57
2023-03-07T11:48:22.897Z,4.95
2023-03-07T11:50:55.192Z,8.10
2023-03-07T11:53:31.778Z,18.67
2023-03-07T11:56:38.579Z,11.95
2023-03-07T11:59:35.305Z,8.77
2023-03-07T12:02:27.299Z,11.35
2023-03-07T12:05:05.429Z,11.48
2023-03-07T12:08:03.222Z,6.30
2023-03-07T12:10:46.019Z,4.65
2023-03-07T12:13:32.110Z,6.22
2023-03-07T12:16:27.141Z,6.95
2023-03-07T12:19:00.290Z,4.57
2023-03-07T12:22:01.315Z,3.33
2023-03-07T12:24:43.106Z,3.40
2023-03-07T12:27:16.155Z,3.67
2023-03-07T12:29:57.638Z,5.00
2023-03-07T12:32:26.631Z,9.10
2023-03-07T12:34:59.312Z,3.90
2023-03-07T12:37:46.044Z,2.78
2023-03-07T12:40:26.049Z,4.57
2023-03-07T12:43:07.922Z,4.05
2023-03-07T12:46:04.307Z,3.85
2023-03-07T12:48:49.046Z,3.83
2023-03-07T12:51:26.800Z,4.30
2023-03-07T12:54:06.294Z,2.70
2023-03-07T12:56:48.336Z,4.50
2023-03-07T12:59:20.628Z,4.45
2023-03-07T13:01:50.786Z,5.70
2023-03-07T13:04:25.942Z,5.22
2023-03-07T13:06:55.843Z,5.18
2023-03-07T13:09:27.773Z,6.57
2023-03-07T13:12:26.537Z,4.63
2023-03-07T13:14:57.385Z,4.03
2023-03-07T13:17:27.368Z,7.25
2023-03-07T13:19:57.094Z,4.40
2023-03-07T13:22:23.880Z,5.68
2023-03-07T13:24:52.267Z,2.55
2023-03-07T13:27:31.035Z,5.47
2023-03-07T13:30:20.526Z,3.55
2023-03-07T13:32:56.522Z,6.93
2023-03-07T13:35:32.584Z,6.65
2023-03-07T13:38:15.162Z,7.78
2023-03-07T13:40:45.304Z,8.25
2023-03-07T13:43:27.275Z,5.05
2023-03-07T13:46:01.837Z,6.15
2023-03-07T13:48:28.933Z,3.25
2023-03-07T13:50:55.896Z,5.22
2023-03-07T13:53:36.337Z,6.97
2023-03-07T13:56:15.472Z,11.65
2023-03-07T13:58:45.372Z,9.07
2023-03-07T14:01:30.286Z,7.38
2023-03-07T14:04:40.739Z,7.50
2023-03-07T14:07:21.393Z,4.38
2023-03-07T14:12:37.121Z,7.22
2023-03-07T14:15:17.487Z,11.60
2023-03-07T14:20:32.810Z,9.00
2023-03-07T14:23:18.558Z,8.90
2023-03-07T14:25:52.530Z,6.90
2023-03-07T14:28:27.060Z,8.43
2023-03-07T14:30:54.286Z,11.07
2023-03-07T14:33:21.275Z,11.65
2023-03-07T14:35:48.184Z,10.50
2023-03-07T14:38:24.604Z,12.05
2023-03-07T14:40:58.019Z,10.80
2023-03-07T14:43:48.184Z,12.55
2023-03-07T14:46:36.348Z,13.20
2023-03-07T14:49:09.639Z,12.25
2023-03-07T14:51:41.520Z,14.20
2023-03-07T14:54:16.609Z,12.45
2023-03-07T14:56:44.048Z,11.93
2023-03-07T14:59:25.876Z,10.40
2023-03-07T15:01:56.226Z,13.93
2023-03-07T15:04:32.204Z,13.18
2023-03-07T15:07:01.541Z,9.45
2023-03-07T15:09:29.810Z,6.22
2023-03-07T15:12:03.430Z,7.65
2023-03-07T15:14:44.602Z,8.45
2023-03-07T15:17:43.988Z,8.05
2023-03-07T15:20:22.149Z,3.00
2023-03-07T15:22:50.153Z,6.18
2023-03-07T15:25:25.356Z,8.20
2023-03-07T15:28:15.660Z,9.20
2023-03-07T15:30:53.216Z,9.27
2023-03-07T15:33:20.555Z,5.53
2023-03-07T15:36:25.862Z,9.48
2023-03-07T15:39:13.704Z,10.68
2023-03-07T15:41:40.674Z,4.70
2023-03-07T15:44:13.773Z,7.30
2023-03-07T15:46:47.549Z,7.50
2023-03-07T15:49:40.743Z,9.23
2023-03-07T15:52:37.155Z,6.85
2023-03-07T15:55:08.381Z,8.93
2023-03-07T15:57:48.938Z,6.88
2023-03-07T16:00:26.778Z,12.57
2023-03-07T16:02:53.980Z,8.80
2023-03-07T16:05:22.063Z,12.57
2023-03-07T16:07:52.413Z,5.63
2023-03-07T16:12:49.209Z,5.75
2023-03-07T16:15:26.618Z,7.77
2023-03-07T16:17:56.339Z,9.10
2023-03-07T16:20:28.505Z,6.75
2023-03-07T16:22:55.946Z,8.57
2023-03-07T16:25:24.918Z,8.00
2023-03-07T16:27:55.002Z,7.57
2023-03-07T16:30:25.030Z,6.43
2023-03-07T16:32:52.466Z,8.48
2023-03-07T16:35:28.590Z,6.47
2023-03-07T16:37:56.404Z,8.35
2023-03-07T16:40:26.029Z,8.95
2023-03-07T16:42:53.499Z,7.38
2023-03-07T16:45:31.798Z,6.63
2023-03-07T16:48:02.533Z,7.43
2023-03-07T16:50:33.686Z,6.60
2023-03-07T16:53:00.885Z,9.70
2023-03-07T16:55:28.317Z,6.57
2023-03-07T16:57:59.068Z,7.80
2023-03-07T17:00:27.867Z,7.45
2023-03-07T17:02:59.261Z,11.57
2023-03-07T17:05:29.020Z,14.95
2023-03-07T17:07:57.553Z,15.82
2023-03-07T17:10:28.982Z,14.15
2023-03-07T17:13:01.587Z,18.90
2023-03-07T17:15:31.338Z,14.88
2023-03-07T17:17:59.444Z,16.67
2023-03-07T17:20:27.464Z,14.45
2023-03-07T17:22:54.469Z,14.50
2023-03-07T17:25:23.087Z,15.60
2023-03-07T17:27:55.205Z,17.40
2023-03-07T17:30:25.044Z,14.70
2023-03-07T17:32:52.736Z,19.95
2023-03-07T17:35:20.240Z,15.05
2023-03-07T17:37:50.979Z,15.85
2023-03-07T17:40:18.212Z,12.98
2023-03-07T17:42:48.442Z,15.95
2023-03-07T17:47:42.348Z,17.65
2023-03-07T17:50:10.090Z,19.00
2023-03-07T17:52:37.469Z,18.42
2023-03-07T17:55:09.496Z,21.33
2023-03-07T17:57:36.884Z,19.80
2023-03-07T18:00:09.741Z,21.00
2023-03-07T18:02:40.531Z,17.27
2023-03-07T18:05:08.017Z,18.55
2023-03-07T18:07:35.007Z,17.38
2023-03-07T18:10:08.158Z,18.63
2023-03-07T18:12:35.931Z,18.48
2023-03-07T18:15:03.081Z,17.98
2023-03-07T18:17:41.777Z,19.27
2023-03-07T18:20:16.520Z,17.52
2023-03-07T18:22:43.640Z,22.05
2023-03-07T18:25:14.727Z,26.00
2023-03-07T18:27:41.753Z,17.75
2023-03-07T18:30:09.492Z,18.55
2023-03-07T18:32:36.511Z,27.83
2023-03-07T18:35:04.433Z,27.45
2023-03-07T18:37:31.508Z,24.35
2023-03-07T18:39:58.506Z,26.02
2023-03-07T18:42:25.467Z,22.40
2023-03-07T18:44:52.435Z,28.75
2023-03-07T18:47:19.360Z,23.00
2023-03-07T18:49:49.232Z,22.05
2023-03-07T18:52:16.132Z,24.33
2023-03-07T18:54:43.214Z,32.75
2023-03-07T18:57:10.303Z,29.95
2023-03-07T18:59:37.225Z,23.63
2023-03-07T19:02:04.294Z,24.45
2023-03-07T19:04:31.518Z,29.60
2023-03-07T19:06:59.776Z,28.48
2023-03-07T19:09:28.030Z,26.27
2023-03-07T19:11:54.976Z,26.92
2023-03-07T19:14:22.064Z,26.55
2023-03-07T19:16:49.135Z,25.35
2023-03-07T19:19:16.065Z,25.35
2023-03-07T19:21:43.037Z,29.45
2023-03-07T19:24:11.845Z,31.40
2023-03-07T19:26:40.199Z,26.83
2023-03-07T19:29:07.138Z,31.00
2023-03-07T19:31:35.182Z,32.20
2023-03-07T19:34:05.097Z,31.85
2023-03-07T19:36:33.916Z,30.73
2023-03-07T19:39:01.300Z,32.92
2023-03-07T19:41:30.800Z,29.13
2023-03-07T19:43:59.625Z,34.30
2023-03-07T19:46:26.877Z,33.53
2023-03-07T19:48:54.177Z,30.33
2023-03-07T19:51:25.983Z,34.17
2023-03-07T19:53:56.943Z,38.72
2023-03-07T19:56:29.714Z,40.60
2023-03-07T19:58:58.328Z,37.42
2023-03-07T20:01:26.166Z,33.30
2023-03-07T20:03:54.368Z,37.08
2023-03-07T20:06:31.172Z,49.72
2023-03-07T20:08:59.557Z,40.22
2023-03-07T20:11:29.392Z,35.80
2023-03-07T20:13:58.672Z,31.17
2023-03-07T20:16:29.302Z,37.13
2023-03-07T20:19:02.234Z,49.28
2023-03-07T20:21:30.180Z,34.88
2023-03-07T20:24:00.346Z,33.67
2023-03-07T20:28:57.320Z,32.80
2023-03-07T20:31:24.651Z,38.08
2023-03-07T20:33:52.119Z,36.03
2023-03-07T20:36:27.587Z,36.97
2023-03-07T20:38:57.018Z,36.88
2023-03-07T20:41:26.883Z,40.08
2023-03-07T20:43:57.277Z,36.15
2023-03-07T20:46:24.274Z,34.08
2023-03-07T20:48:54.809Z,34.28
2023-03-07T20:51:24.928Z,28.08
2023-03-07T20:54:00.612Z,35.97
2023-03-07T20:56:30.202Z,32.72
2023-03-07T20:58:57.748Z,32.72
2023-03-07T21:01:26.927Z,32.15
2023-03-07T21:03:54.244Z,33.55
2023-03-07T21:06:21.675Z,35.92
2023-03-07T21:08:48.950Z,37.72
2023-03-07T21:11:19.337Z,37.03
2023-03-07T21:13:48.617Z,38.28
2023-03-07T21:16:21.262Z,39.90
2023-03-07T21:18:49.017Z,45.38
2023-03-07T21:21:18.039Z,43.13
2023-03-07T21:23:45.754Z,40.10
2023-03-07T21:26:23.810Z,43.80
2023-03-07T21:28:51.594Z,45.22
2023-03-07T21:31:24.262Z,43.65
2023-03-07T21:33:53.519Z,48.08
2023-03-07T21:36:21.038Z,49.08
2023-03-07T21:38:48.444Z,40.60
2023-03-07T21:41:16.599Z,41.70
2023-03-07T21:43:43.575Z,40.40
2023-03-07T21:46:12.975Z,50.55
2023-03-07T21:48:40.274Z,46.20
2023-03-07T21:51:08.134Z,41.72
2023-03-07T21:53:35.707Z,39.47
2023-03-07T21:56:11.488Z,45.90
2023-03-07T21:58:39.829Z,45.28
2023-03-07T22:01:18.962Z,42.10
2023-03-07T22:03:46.548Z,34.03
2023-03-07T22:06:15.679Z,94.75
2023-03-07T22:08:42.929Z,44.50
2023-03-07T22:11:11.455Z,57.17
2023-03-07T22:13:40.356Z,60.97
2023-03-07T22:16:12.946Z,42.17
2023-03-07T22:18:40.207Z,38.97
2023-03-07T22:21:14.122Z,39.97
2023-03-07T22:23:42.278Z,33.10
2023-03-07T22:26:10.813Z,40.85
2023-03-07T22:28:38.163Z,40.42
2023-03-07T22:31:07.721Z,39.25
2023-03-07T22:33:35.092Z,38.50
2023-03-07T22:36:05.118Z,33.65
2023-03-07T22:38:55.897Z,36.13
2023-03-07T22:41:23.939Z,43.45
2023-03-07T22:43:52.558Z,40.15
2023-03-07T22:46:19.507Z,50.28
2023-03-07T22:48:46.331Z,46.78
2023-03-07T22:51:16.646Z,47.65
2023-03-07T22:53:43.936Z,56.03
2023-03-07T22:56:22.430Z,54.85
2023-03-07T22:58:50.054Z,58.05
2023-03-07T23:01:20.363Z,61.85
2023-03-07T23:03:51.341Z,64.13
2023-03-07T23:06:18.784Z,63.13
2023-03-07T23:08:50.788Z,73.32
2023-03-07T23:11:20.207Z,65.35
2023-03-07T23:13:47.449Z,68.93
2023-03-07T23:16:16.877Z,75.78
2023-03-07T23:18:45.427Z,72.18
2023-03-07T23:21:15.677Z,66.07
2023-03-07T23:23:42.598Z,50.83
2023-03-07T23:26:09.522Z,50.42
2023-03-07T23:28:36.399Z,53.50
2023-03-07T23:31:03.582Z,59.03
2023-03-07T23:33:30.452Z,56.72
2023-03-07T23:35:59.885Z,64.70
2023-03-07T23:38:26.733Z,68.50
2023-03-07T23:40:53.513Z,58.45
2023-03-07T23:43:20.298Z,68.97
2023-03-07T23:45:47.242Z,72.22
2023-03-07T23:48:14.215Z,77.38
2023-03-07T23:50:41.065Z,65.35
2023-03-07T23:53:07.899Z,63.13
2023-03-07T23:55:34.824Z,63.28
2023-03-07T23:58:01.873Z,52.20
